createdAt,value
2023-05-07T00:01:46.306Z,6.15
2023-05-07T00:04:14.373Z,5.45
2023-05-07T00:06:41.258Z,6.57
2023-05-07T00:09:08.243Z,6.22
2023-05-07T00:11:36.375Z,6.32
2023-05-07T00:14:03.988Z,6.15
2023-05-07T00:16:31.068Z,5.95
2023-05-07T00:18:57.828Z,5.07
2023-05-07T00:21:27.390Z,5.10
2023-05-07T00:23:54.910Z,5.80
2023-05-07T00:26:21.908Z,5.20
2023-05-07T00:28:50.362Z,4.20
2023-05-07T00:31:17.083Z,4.13
2023-05-07T00:33:43.755Z,4.40
2023-05-07T00:36:10.662Z,6.50
2023-05-07T00:38:37.361Z,5.65
2023-05-07T00:41:04.226Z,6.47
2023-05-07T00:43:30.890Z,4.78
2023-05-07T00:45:57.762Z,7.18
2023-05-07T00:48:25.421Z,5.53
2023-05-07T00:50:52.764Z,5.30
2023-05-07T00:53:19.600Z,5.68
2023-05-07T00:55:46.428Z,5.95
2023-05-07T00:58:13.548Z,8.23
2023-05-07T01:00:40.165Z,5.63
2023-05-07T01:03:06.940Z,7.57
2023-05-07T01:05:34.383Z,7.35
2023-05-07T01:08:02.659Z,9.50
2023-05-07T01:10:31.497Z,10.32
2023-05-07T01:12:59.755Z,7.85
2023-05-07T01:15:26.650Z,7.28
2023-05-07T01:17:53.463Z,8.45
2023-05-07T01:20:29.664Z,7.35
2023-05-07T01:22:58.548Z,8.63
2023-05-07T01:25:25.811Z,9.55
2023-05-07T01:27:56.041Z,8.50
2023-05-07T01:30:27.934Z,9.57
2023-05-07T01:33:05.025Z,11.95
2023-05-07T01:35:39.755Z,10.70
2023-05-07T01:38:07.813Z,12.10
2023-05-07T01:40:35.490Z,10.40
2023-05-07T01:43:06.698Z,12.13
2023-05-07T01:45:35.854Z,10.15
2023-05-07T01:48:03.868Z,10.77
2023-05-07T01:50:32.434Z,9.93
2023-05-07T01:52:59.120Z,12.75
2023-05-07T01:55:25.920Z,11.38
2023-05-07T01:57:52.589Z,13.70
2023-05-07T02:00:19.945Z,16.63
2023-05-07T02:02:46.799Z,17.63
2023-05-07T02:05:25.235Z,14.55
2023-05-07T02:08:10.086Z,14.38
2023-05-07T02:10:37.767Z,14.32
2023-05-07T02:13:06.422Z,16.27
2023-05-07T02:15:33.221Z,15.18
2023-05-07T02:18:10.172Z,16.15
2023-05-07T02:20:38.110Z,14.70
2023-05-07T02:23:04.824Z,15.55
2023-05-07T02:25:31.915Z,12.50
2023-05-07T02:27:59.397Z,14.80
2023-05-07T02:30:39.338Z,15.65
2023-05-07T02:33:07.299Z,14.45
2023-05-07T02:35:34.010Z,15.20
2023-05-07T02:38:01.055Z,16.63
2023-05-07T02:40:27.748Z,15.90
2023-05-07T02:42:54.461Z,16.45
2023-05-07T02:45:21.240Z,17.50
2023-05-07T02:47:50.313Z,15.88
2023-05-07T02:50:17.201Z,18.55
2023-05-07T02:52:43.967Z,18.33
2023-05-07T02:55:11.485Z,17.00
2023-05-07T02:57:38.206Z,17.80
2023-05-07T03:00:17.378Z,16.75
2023-05-07T03:02:51.799Z,18.20
2023-05-07T03:05:19.092Z,17.40
2023-05-07T03:07:47.046Z,19.42
2023-05-07T03:10:14.558Z,20.77
2023-05-07T03:12:41.349Z,20.38
2023-05-07T03:15:11.409Z,18.35
2023-05-07T03:17:38.307Z,17.20
2023-05-07T03:20:05.851Z,17.27
2023-05-07T03:22:33.423Z,17.05
2023-05-07T03:25:00.599Z,18.35
2023-05-07T03:27:27.307Z,17.33
2023-05-07T03:29:55.023Z,16.50
2023-05-07T03:32:21.782Z,16.92
2023-05-07T03:34:48.527Z,17.00
2023-05-07T03:37:15.361Z,16.55
2023-05-07T03:39:43.341Z,18.23
2023-05-07T03:42:10.784Z,19.88
2023-05-07T03:44:38.312Z,17.05
2023-05-07T03:47:05.558Z,18.00
2023-05-07T03:49:32.905Z,18.27
2023-05-07T03:52:00.508Z,15.50
2023-05-07T03:54:27.441Z,18.38
2023-05-07T03:56:54.163Z,16.92
2023-05-07T03:59:21.652Z,19.90
2023-05-07T04:01:49.743Z,18.33
2023-05-07T04:04:18.946Z,17.00
2023-05-07T04:06:45.851Z,18.10
2023-05-07T04:09:13.260Z,19.38
2023-05-07T04:11:41.129Z,16.05
2023-05-07T04:14:10.043Z,19.85
2023-05-07T04:16:37.329Z,20.38
2023-05-07T04:19:04.605Z,17.00
2023-05-07T04:21:32.029Z,19.08
2023-05-07T04:23:59.565Z,17.92
2023-05-07T04:26:26.343Z,19.85
2023-05-07T04:28:53.112Z,18.02
2023-05-07T04:31:19.978Z,20.60
2023-05-07T04:33:52.519Z,18.92
2023-05-07T04:36:19.812Z,18.25
2023-05-07T04:38:58.996Z,18.60
2023-05-07T04:41:25.894Z,21.52
2023-05-07T04:43:52.709Z,19.88
2023-05-07T04:46:23.229Z,18.45
2023-05-07T04:48:50.292Z,18.17
2023-05-07T04:51:17.036Z,16.75
2023-05-07T04:53:44.122Z,18.48
2023-05-07T04:56:11.006Z,21.98
2023-05-07T04:58:43.262Z,19.85
2023-05-07T05:01:10.693Z,18.33
2023-05-07T05:03:40.273Z,19.30
2023-05-07T05:06:07.295Z,19.98
2023-05-07T05:08:35.120Z,18.70
2023-05-07T05:11:03.765Z,15.07
2023-05-07T05:13:32.605Z,17.98
2023-05-07T05:16:01.744Z,19.27
2023-05-07T05:18:30.570Z,17.73
2023-05-07T05:20:57.354Z,19.85
2023-05-07T05:23:24.357Z,19.25
2023-05-07T05:25:55.924Z,16.65
2023-05-07T05:28:23.276Z,17.83
2023-05-07T05:30:50.075Z,17.55
2023-05-07T05:33:17.864Z,16.35
2023-05-07T05:35:44.568Z,17.83
2023-05-07T05:38:12.882Z,18.30
2023-05-07T05:40:41.024Z,17.58
2023-05-07T05:43:08.108Z,18.05
2023-05-07T05:45:35.276Z,18.75
2023-05-07T05:48:01.925Z,17.23
2023-05-07T05:50:30.061Z,16.45
2023-05-07T05:52:57.615Z,19.63
2023-05-07T05:55:25.934Z,17.58
2023-05-07T05:57:52.648Z,16.33
2023-05-07T06:00:23.267Z,17.88
2023-05-07T06:02:56.266Z,14.80
2023-05-07T06:05:25.049Z,14.82
2023-05-07T06:07:54.329Z,14.60
2023-05-07T06:10:21.449Z,16.95
2023-05-07T06:12:48.300Z,16.38
2023-05-07T06:15:16.278Z,16.27
2023-05-07T06:17:43.348Z,16.95
2023-05-07T06:20:11.665Z,15.63
2023-05-07T06:22:39.823Z,14.63
2023-05-07T06:25:06.955Z,16.50
2023-05-07T06:27:33.815Z,19.20
2023-05-07T06:30:00.536Z,17.65
2023-05-07T06:32:27.414Z,20.17
2023-05-07T06:34:55.026Z,15.50
2023-05-07T06:37:21.973Z,15.10
2023-05-07T06:40:02.135Z,16.85
2023-05-07T06:42:30.974Z,19.65
2023-05-07T06:45:00.885Z,15.68
2023-05-07T06:47:30.963Z,14.98
2023-05-07T06:49:58.783Z,15.18
2023-05-07T06:52:29.424Z,15.30
2023-05-07T06:54:56.447Z,16.77
2023-05-07T06:57:25.638Z,17.98
2023-05-07T06:59:52.457Z,17.35
2023-05-07T07:02:20.095Z,18.85
2023-05-07T07:04:49.260Z,14.93
2023-05-07T07:07:15.985Z,14.77
2023-05-07T07:09:45.092Z,18.58
2023-05-07T07:12:14.171Z,16.25
2023-05-07T07:14:41.857Z,17.33
2023-05-07T07:17:08.687Z,17.50
2023-05-07T07:19:36.370Z,16.10
2023-05-07T07:22:04.270Z,15.68
2023-05-07T07:24:31.556Z,15.30
2023-05-07T07:27:01.799Z,15.18
2023-05-07T07:29:28.906Z,14.18
2023-05-07T07:31:56.205Z,16.75
2023-05-07T07:34:23.223Z,15.25
2023-05-07T07:36:50.636Z,15.48
2023-05-07T07:39:19.095Z,15.02
2023-05-07T07:41:47.895Z,16.77
2023-05-07T07:44:16.516Z,18.63
2023-05-07T07:46:47.272Z,15.68
2023-05-07T07:49:14.235Z,15.48
2023-05-07T07:51:41.680Z,16.67
2023-05-07T07:54:10.165Z,15.35
2023-05-07T07:56:37.349Z,15.95
2023-05-07T07:59:05.902Z,16.48
2023-05-07T08:01:33.933Z,16.67
2023-05-07T08:04:01.445Z,15.57
2023-05-07T08:06:30.808Z,14.88
2023-05-07T08:08:57.617Z,15.50
2023-05-07T08:11:24.544Z,16.40
2023-05-07T08:13:52.923Z,14.52
2023-05-07T08:16:20.348Z,16.00
2023-05-07T08:18:48.222Z,14.73
2023-05-07T08:21:14.976Z,15.65
2023-05-07T08:23:42.060Z,16.98
2023-05-07T08:26:09.875Z,18.30
2023-05-07T08:28:37.997Z,15.18
2023-05-07T08:31:04.822Z,16.17
2023-05-07T08:33:35.661Z,14.85
2023-05-07T08:36:02.332Z,18.58
2023-05-07T08:38:29.946Z,16.52
2023-05-07T08:40:56.747Z,16.65
2023-05-07T08:43:27.181Z,13.48
2023-05-07T08:45:56.261Z,13.65
2023-05-07T08:48:30.642Z,14.95
2023-05-07T08:51:06.176Z,16.23
2023-05-07T08:53:33.939Z,19.58
2023-05-07T08:56:00.990Z,16.10
2023-05-07T08:58:29.518Z,16.30
2023-05-07T09:00:57.067Z,14.95
2023-05-07T09:03:24.484Z,15.18
2023-05-07T09:05:53.795Z,16.92
2023-05-07T09:08:26.024Z,16.30
2023-05-07T09:10:53.773Z,15.20
2023-05-07T09:13:21.392Z,15.48
2023-05-07T09:15:48.370Z,16.75
2023-05-07T09:18:16.590Z,16.45
2023-05-07T09:20:44.500Z,16.85
2023-05-07T09:23:11.385Z,16.10
2023-05-07T09:25:38.485Z,15.20
2023-05-07T09:28:12.967Z,13.02
2023-05-07T09:30:39.667Z,14.88
2023-05-07T09:33:09.612Z,15.98
2023-05-07T09:35:40.867Z,19.17
2023-05-07T09:38:12.326Z,16.30
2023-05-07T09:40:39.001Z,14.45
2023-05-07T09:43:12.756Z,13.68
2023-05-07T09:45:44.052Z,12.95
2023-05-07T09:48:12.747Z,14.45
2023-05-07T09:50:52.413Z,12.82
2023-05-07T09:53:23.522Z,13.85
2023-05-07T09:55:51.890Z,12.65
2023-05-07T09:58:19.865Z,13.30
2023-05-07T10:00:47.984Z,12.60
2023-05-07T10:03:17.007Z,12.77
2023-05-07T10:05:52.617Z,12.70
2023-05-07T10:08:21.223Z,11.82
2023-05-07T10:10:51.104Z,10.40
2023-05-07T10:13:22.814Z,12.38
2023-05-07T10:15:53.154Z,11.18
2023-05-07T10:18:30.329Z,10.48
2023-05-07T10:21:07.851Z,9.57
2023-05-07T10:23:35.646Z,8.85
2023-05-07T10:26:06.267Z,9.88
2023-05-07T10:28:41.688Z,10.90
2023-05-07T10:31:37.957Z,10.38
2023-05-07T10:34:11.627Z,9.70
2023-05-07T10:36:40.100Z,13.27
2023-05-07T10:39:07.658Z,8.93
2023-05-07T10:41:35.225Z,9.45
2023-05-07T10:44:03.072Z,9.05
2023-05-07T10:46:36.318Z,10.13
2023-05-07T10:49:11.145Z,10.07
2023-05-07T10:52:24.240Z,9.02
2023-05-07T10:55:26.473Z,9.00
2023-05-07T11:01:00.911Z,10.85
2023-05-07T11:03:33.936Z,9.63
2023-05-07T11:06:12.329Z,9.25
2023-05-07T11:08:57.440Z,12.45
2023-05-07T11:12:00.729Z,12.07
2023-05-07T11:14:46.706Z,10.30
2023-05-07T11:17:18.113Z,11.45
2023-05-07T11:19:54.424Z,9.07
2023-05-07T11:22:40.828Z,10.18
2023-05-07T11:25:26.659Z,8.38
2023-05-07T11:28:06.532Z,8.70
2023-05-07T11:30:33.846Z,7.63
2023-05-07T11:33:01.003Z,9.07
2023-05-07T11:35:28.172Z,7.85
2023-05-07T11:38:01.353Z,7.22
2023-05-07T11:40:29.930Z,7.05
2023-05-07T11:42:56.590Z,7.88
2023-05-07T11:45:26.846Z,7.40
2023-05-07T11:47:53.665Z,8.02
2023-05-07T11:50:20.634Z,6.55
2023-05-07T11:52:53.733Z,9.30
2023-05-07T11:55:20.780Z,8.07
2023-05-07T11:57:48.627Z,9.18
2023-05-07T12:00:17.362Z,7.78
2023-05-07T12:02:46.592Z,6.85
2023-05-07T12:05:13.669Z,7.07
2023-05-07T12:07:40.798Z,6.88
2023-05-07T12:10:08.101Z,7.70
2023-05-07T12:12:42.876Z,8.30
2023-05-07T12:15:10.433Z,6.97
2023-05-07T12:17:37.745Z,7.78
2023-05-07T12:20:05.998Z,6.22
2023-05-07T12:22:32.870Z,6.80
2023-05-07T12:24:59.972Z,9.45
2023-05-07T12:27:27.220Z,7.82
2023-05-07T12:29:53.892Z,7.47
2023-05-07T12:32:22.250Z,9.15
2023-05-07T12:34:52.704Z,6.97
2023-05-07T12:37:27.921Z,6.40
2023-05-07T12:40:09.931Z,6.88
2023-05-07T12:42:38.158Z,8.10
2023-05-07T12:45:17.522Z,5.63
2023-05-07T12:47:46.178Z,5.30
2023-05-07T12:50:14.989Z,5.20
2023-05-07T12:52:42.025Z,6.00
2023-05-07T12:55:09.931Z,5.05
2023-05-07T12:57:41.482Z,6.57
2023-05-07T13:00:09.866Z,5.93
2023-05-07T13:02:40.775Z,5.72
2023-05-07T13:05:08.413Z,6.22
2023-05-07T13:07:35.445Z,6.40
2023-05-07T13:10:02.223Z,6.28
2023-05-07T13:12:28.985Z,5.18
2023-05-07T13:14:55.707Z,9.77
2023-05-07T13:17:22.448Z,4.32
2023-05-07T13:19:49.249Z,4.70
2023-05-07T13:22:15.917Z,7.10
2023-05-07T13:24:44.566Z,4.80
2023-05-07T13:27:11.310Z,4.80
2023-05-07T13:29:37.953Z,3.75
2023-05-07T13:32:04.947Z,5.00
2023-05-07T13:34:31.662Z,4.72
2023-05-07T13:36:58.369Z,5.05
2023-05-07T13:39:25.045Z,3.85
2023-05-07T13:41:51.706Z,3.65
2023-05-07T13:44:18.408Z,3.70
2023-05-07T13:46:45.089Z,3.70
2023-05-07T13:49:13.396Z,5.80
2023-05-07T13:51:40.004Z,5.05
2023-05-07T13:54:06.826Z,4.40
2023-05-07T13:56:33.524Z,5.93
2023-05-07T13:59:01.057Z,4.22
2023-05-07T14:01:28.342Z,3.83
2023-05-07T14:03:56.367Z,3.67
2023-05-07T14:06:23.090Z,4.53
2023-05-07T14:08:50.160Z,5.03
2023-05-07T14:11:16.993Z,3.58
2023-05-07T14:13:43.692Z,6.22
2023-05-07T14:16:10.376Z,5.60
2023-05-07T14:18:38.013Z,4.05
2023-05-07T14:21:07.229Z,3.97
2023-05-07T14:23:33.916Z,4.20
2023-05-07T14:26:00.724Z,4.45
2023-05-07T14:28:27.390Z,3.88
2023-05-07T14:30:54.088Z,4.25
2023-05-07T14:33:20.793Z,3.85
2023-05-07T14:35:49.709Z,5.80
2023-05-07T14:38:16.634Z,5.68
2023-05-07T14:40:43.530Z,5.70
2023-05-07T14:43:10.243Z,4.75
2023-05-07T14:45:36.877Z,4.75
2023-05-07T14:48:04.032Z,3.97
2023-05-07T14:50:31.014Z,3.83
2023-05-07T14:52:57.658Z,6.50
2023-05-07T14:55:24.305Z,4.95
2023-05-07T14:57:51.004Z,4.15
2023-05-07T15:00:17.841Z,4.40
2023-05-07T15:02:44.632Z,5.72
2023-05-07T15:05:11.676Z,4.07
2023-05-07T15:07:38.573Z,5.72
2023-05-07T15:10:05.766Z,5.70
2023-05-07T15:12:32.379Z,7.18
2023-05-07T15:14:59.054Z,7.95
2023-05-07T15:17:25.902Z,4.55
2023-05-07T15:19:54.384Z,4.50
2023-05-07T15:22:22.468Z,8.30
2023-05-07T15:24:49.321Z,5.15
2023-05-07T15:27:17.861Z,5.32
2023-05-07T15:29:44.483Z,5.45
2023-05-07T15:32:11.373Z,4.85
2023-05-07T15:34:38.185Z,5.40
2023-05-07T15:37:04.885Z,4.70
2023-05-07T15:39:31.977Z,3.65
2023-05-07T15:41:58.628Z,4.05
2023-05-07T15:44:29.566Z,3.95
2023-05-07T15:46:56.226Z,10.05
2023-05-07T15:49:23.105Z,5.97
2023-05-07T15:51:51.641Z,6.70
2023-05-07T15:54:20.878Z,34.85
2023-05-07T15:56:47.915Z,16.80
2023-05-07T15:59:16.358Z,6.35
2023-05-07T16:01:43.482Z,6.38
2023-05-07T16:04:10.704Z,6.57
2023-05-07T16:06:37.429Z,5.28
2023-05-07T16:09:04.150Z,6.93
2023-05-07T16:11:30.818Z,4.63
2023-05-07T16:13:57.550Z,4.65
2023-05-07T16:16:26.598Z,4.15
2023-05-07T16:18:53.279Z,5.45
2023-05-07T16:21:19.972Z,4.95
2023-05-07T16:23:46.899Z,8.60
2023-05-07T16:26:14.454Z,5.63
2023-05-07T16:28:41.195Z,4.95
2023-05-07T16:31:08.692Z,4.50
2023-05-07T16:33:36.093Z,5.47
2023-05-07T16:36:03.381Z,7.03
2023-05-07T16:38:33.029Z,9.02
2023-05-07T16:41:00.195Z,6.43
2023-05-07T16:43:27.276Z,11.60
2023-05-07T16:45:54.029Z,5.50
2023-05-07T16:48:21.332Z,7.55
2023-05-07T16:50:48.127Z,4.50
2023-05-07T16:53:14.870Z,4.13
2023-05-07T16:55:41.625Z,4.55
2023-05-07T16:58:10.101Z,3.67
2023-05-07T17:00:48.998Z,4.15
2023-05-07T17:03:17.440Z,7.05
2023-05-07T17:05:44.489Z,4.80
2023-05-07T17:08:11.125Z,4.85
2023-05-07T17:10:37.814Z,4.85
2023-05-07T17:13:04.549Z,4.95
2023-05-07T17:15:31.365Z,5.32
2023-05-07T17:17:58.174Z,5.35
2023-05-07T17:20:25.735Z,6.18
2023-05-07T17:22:52.539Z,6.78
2023-05-07T17:25:19.432Z,4.68
2023-05-07T17:27:46.168Z,5.07
2023-05-07T17:30:13.812Z,5.82
2023-05-07T17:32:41.560Z,7.35
2023-05-07T17:35:08.831Z,6.03
2023-05-07T17:37:35.548Z,4.93
2023-05-07T17:40:03.053Z,5.25
2023-05-07T17:42:31.837Z,6.18
2023-05-07T17:44:58.540Z,7.70
2023-05-07T17:47:25.384Z,5.50
2023-05-07T17:49:52.045Z,5.50
2023-05-07T17:52:18.716Z,7.05
2023-05-07T17:54:45.556Z,5.20
2023-05-07T17:57:12.343Z,6.40
2023-05-07T17:59:40.055Z,7.57
2023-05-07T18:02:06.831Z,5.53
2023-05-07T18:04:33.583Z,7.10
2023-05-07T18:07:00.337Z,6.15
2023-05-07T18:09:27.032Z,5.80
2023-05-07T18:11:53.931Z,7.65
2023-05-07T18:14:24.262Z,5.70
2023-05-07T18:16:51.365Z,6.40
2023-05-07T18:19:18.309Z,6.53
2023-05-07T18:21:44.931Z,9.02
2023-05-07T18:24:11.722Z,9.25
2023-05-07T18:26:38.413Z,15.18
2023-05-07T18:29:05.182Z,8.70
2023-05-07T18:31:31.871Z,8.35
2023-05-07T18:33:58.615Z,7.05
2023-05-07T18:36:25.417Z,9.02
2023-05-07T18:38:56.465Z,8.20
2023-05-07T18:41:23.201Z,8.68
2023-05-07T18:43:49.824Z,6.43
2023-05-07T18:46:16.516Z,6.60
2023-05-07T18:48:43.299Z,7.20
2023-05-07T18:51:12.603Z,6.03
2023-05-07T18:53:40.245Z,8.55
2023-05-07T18:56:07.429Z,6.40
2023-05-07T18:58:34.715Z,7.25
2023-05-07T19:01:01.756Z,6.57
2023-05-07T19:03:29.816Z,7.10
2023-05-07T19:05:56.512Z,7.53
2023-05-07T19:08:23.217Z,7.00
2023-05-07T19:10:49.884Z,7.65
2023-05-07T19:13:16.847Z,6.70
2023-05-07T19:15:43.595Z,6.43
2023-05-07T19:18:11.277Z,9.07
2023-05-07T19:20:37.927Z,8.93
2023-05-07T19:23:06.726Z,13.30
2023-05-07T19:25:33.743Z,41.13
2023-05-07T19:28:00.482Z,17.60
2023-05-07T19:30:27.181Z,9.77
2023-05-07T19:32:53.885Z,7.82
2023-05-07T19:35:20.646Z,8.20
2023-05-07T19:37:47.489Z,8.25
2023-05-07T19:40:14.784Z,8.80
2023-05-07T19:42:41.472Z,8.32
2023-05-07T19:45:08.579Z,6.00
2023-05-07T19:47:35.324Z,7.25
2023-05-07T19:50:02.088Z,8.65
2023-05-07T19:52:28.755Z,5.93
2023-05-07T19:54:56.026Z,6.05
2023-05-07T19:57:22.831Z,5.82
2023-05-07T19:59:49.469Z,8.40
2023-05-07T20:02:16.531Z,7.30
2023-05-07T20:04:43.350Z,6.68
2023-05-07T20:07:10.133Z,7.95
2023-05-07T20:09:36.796Z,6.38
2023-05-07T20:12:03.726Z,7.85
2023-05-07T20:14:30.439Z,7.25
2023-05-07T20:16:57.126Z,6.20
2023-05-07T20:19:23.797Z,6.65
2023-05-07T20:21:50.522Z,7.10
2023-05-07T20:24:19.147Z,6.13
2023-05-07T20:26:46.622Z,6.43
2023-05-07T20:29:13.381Z,6.13
2023-05-07T20:31:40.161Z,7.28
2023-05-07T20:34:07.292Z,6.75
2023-05-07T20:36:34.187Z,6.97
2023-05-07T20:39:00.869Z,6.10
2023-05-07T20:41:27.690Z,6.53
2023-05-07T20:43:54.414Z,7.25
2023-05-07T20:46:22.427Z,7.18
2023-05-07T20:48:49.745Z,7.25
2023-05-07T20:51:16.499Z,7.53
2023-05-07T20:53:47.943Z,7.72
2023-05-07T20:56:15.318Z,7.43
2023-05-07T20:58:42.023Z,7.80
2023-05-07T21:01:08.786Z,6.00
2023-05-07T21:03:35.580Z,7.07
2023-05-07T21:06:03.016Z,9.05
2023-05-07T21:08:30.341Z,8.75
2023-05-07T21:10:57.312Z,7.07
2023-05-07T21:13:24.132Z,9.43
2023-05-07T21:15:50.994Z,8.30
2023-05-07T21:18:18.830Z,7.70
2023-05-07T21:20:45.618Z,7.63
2023-05-07T21:23:12.276Z,9.15
2023-05-07T21:25:39.346Z,10.38
2023-05-07T21:28:07.781Z,9.07
2023-05-07T21:30:34.949Z,8.98
2023-05-07T21:33:01.735Z,8.80
2023-05-07T21:35:28.609Z,8.18
2023-05-07T21:37:55.425Z,9.35
2023-05-07T21:40:22.080Z,9.40
2023-05-07T21:42:48.741Z,10.00
2023-05-07T21:45:15.488Z,8.13
2023-05-07T21:47:42.184Z,8.98
2023-05-07T21:50:09.337Z,9.43
2023-05-07T21:52:36.348Z,10.30
2023-05-07T21:55:03.655Z,8.57
2023-05-07T21:57:30.551Z,8.48
2023-05-07T21:59:57.284Z,8.55
2023-05-07T22:02:24.088Z,8.73
2023-05-07T22:04:50.883Z,9.50
2023-05-07T22:07:17.563Z,9.38
2023-05-07T22:09:44.215Z,11.00
2023-05-07T22:12:11.501Z,10.65
2023-05-07T22:14:38.230Z,9.70
2023-05-07T22:17:04.926Z,10.18
2023-05-07T22:19:31.621Z,9.85
2023-05-07T22:21:58.325Z,11.30
2023-05-07T22:24:25.030Z,8.52
2023-05-07T22:26:51.714Z,13.18
2023-05-07T22:29:18.402Z,11.25
2023-05-07T22:31:45.535Z,10.73
2023-05-07T22:34:12.218Z,9.32
2023-05-07T22:36:38.953Z,10.88
2023-05-07T22:39:07.412Z,17.52
2023-05-07T22:41:34.293Z,12.13
2023-05-07T22:44:00.962Z,11.32
2023-05-07T22:46:27.846Z,9.60
2023-05-07T22:48:54.684Z,11.27
2023-05-07T22:51:21.642Z,9.18
2023-05-07T22:53:48.302Z,12.63
2023-05-07T22:56:15.652Z,10.32
2023-05-07T22:58:42.364Z,9.50
2023-05-07T23:01:16.419Z,10.73
2023-05-07T23:03:43.279Z,8.93
2023-05-07T23:06:10.522Z,9.65
2023-05-07T23:08:37.234Z,10.23
2023-05-07T23:11:03.980Z,10.43
2023-05-07T23:13:30.698Z,10.23
2023-05-07T23:15:58.842Z,12.93
2023-05-07T23:18:27.919Z,10.60
2023-05-07T23:20:54.861Z,10.73
2023-05-07T23:23:22.020Z,10.32
2023-05-07T23:25:52.317Z,11.77
2023-05-07T23:28:19.062Z,9.70
2023-05-07T23:30:45.796Z,11.30
2023-05-07T23:33:12.503Z,10.73
2023-05-07T23:35:39.164Z,9.63
2023-05-07T23:38:05.825Z,12.25
2023-05-07T23:40:32.527Z,10.75
2023-05-07T23:42:59.233Z,9.73
2023-05-07T23:45:26.257Z,9.45
2023-05-07T23:47:52.954Z,9.52
2023-05-07T23:50:19.657Z,13.85
2023-05-07T23:52:46.350Z,8.63
2023-05-07T23:55:13.758Z,7.72
2023-05-07T23:57:40.429Z,7.10
